Time;durP1;ratioP1;P1;durP2;ratioP2;P2;SDS_P1;SDS_P2;PMS_P1;PMS_P2;Temp;Humidity;BMP_temperature;BMP_pressure;BME280_temperature;BME280_humidity;BME280_pressure;Samples;Min_cycle;Max_cycle;Signal;HPM_P1;HPM_P2
2023/12/29 00:00:34;;;;;;;;;;;;;;;-144.99;100.00;52635.63;5112530;27;20482;-75
2023/12/29 00:03:01;;;;;;;;;;;;;;;-144.99;100.00;52582.63;5107496;27;19939;-75
2023/12/29 00:05:27;;;;;;;;;;;;;;;-144.99;100.00;52607.09;5106368;27;20458;-75
2023/12/29 00:07:55;;;;;;;;;;;;;;;-144.99;100.00;52621.34;5106460;28;20397;-75
2023/12/29 00:10:22;;;;;;;;;;;;;;;-144.99;100.00;52598.94;5118119;27;19923;-76
2023/12/29 00:12:48;;;;;;;;;;;;;;;-144.99;100.00;52607.09;5111072;27;20022;-76
2023/12/29 00:15:18;;;;;;;;;;;;;;;-144.99;100.00;52619.31;5107176;28;20370;-77
2023/12/29 00:17:44;;;;;;;;;;;;;;;-144.99;100.00;52570.38;5126569;27;19950;-76
2023/12/29 00:20:11;;;;;;;;;;;;;;;-144.99;100.00;52578.53;5109647;27;20415;-78
2023/12/29 00:22:37;;;;;;;;;;;;;;;-144.99;100.00;52574.47;5104616;28;20352;-73
2023/12/29 00:25:08;;;;;;;;;;;;;;;-144.99;100.00;52617.28;5106046;27;20018;-73
2023/12/29 00:27:36;;;;;;;;;;;;;;;-144.99;100.00;52594.84;5117398;27;20160;-78
2023/12/29 00:30:02;;;;;;;;;;;;;;;-144.99;100.00;52558.16;5106495;28;19935;-77
2023/12/29 00:32:29;;;;;;;;;;;;;;;-144.99;100.00;52578.53;5108633;27;20039;-77
2023/12/29 00:34:55;;;;;;;;;;;;;;;-144.99;100.00;52631.53;5110683;27;20018;-77
2023/12/29 00:37:22;;;;;;;;;;;;;;;-144.99;100.00;52592.81;5110309;28;19928;-77
2023/12/29 00:39:48;;;;;;;;;;;;;;;-144.99;100.00;52566.31;5106445;28;20034;-78
2023/12/29 00:42:16;;;;;;;;;;;;;;;-144.99;100.00;52603.00;5107572;28;20459;-77
2023/12/29 00:44:43;;;;;;;;;;;;;;;-144.99;100.00;52586.69;5104501;28;19938;-77
2023/12/29 00:47:09;;;;;;;;;;;;;;;-144.99;100.00;52605.03;5111194;28;19974;-78
2023/12/29 00:49:39;;;;;;;;;;;;;;;-144.99;100.00;52603.00;5126439;27;19951;-79
2023/12/29 00:52:05;;;;;;;;;;;;;;;-144.99;100.00;52590.78;5118541;28;20282;-78
2023/12/29 00:54:32;;;;;;;;;;;;;;;-144.99;100.00;52584.66;5107535;28;20023;-76
2023/12/29 00:56:58;;;;;;;;;;;;;;;-144.99;100.00;52637.66;5109987;28;20388;-77
2023/12/29 00:59:26;;;;;;;;;;;;;;;-144.99;100.00;52603.00;5108891;28;20388;-77
2023/12/29 01:01:52;;;;;;;;;;;;;;;-144.99;100.00;52627.47;5118838;27;20011;-78
2023/12/29 01:04:19;;;;;;;;;;;;;;;-144.99;100.00;52558.16;5110125;27;19958;-78
2023/12/29 01:06:45;;;;;;;;;;;;;;;-144.99;100.00;52607.09;5124515;27;19954;-75
2023/12/29 01:09:12;;;;;;;;;;;;;;;-144.99;100.00;52598.94;5115217;27;20030;-76
2023/12/29 01:11:38;;;;;;;;;;;;;;;-144.99;100.00;52594.84;5108908;28;20363;-74
2023/12/29 01:14:05;;;;;;;;;;;;;;;-144.99;100.00;52586.69;4756232;27;9999922;-75
2023/12/29 01:16:33;;;;;;;;;;;;;;;-144.99;100.00;52558.16;5115931;27;19928;-76
2023/12/29 01:18:59;;;;;;;;;;;;;;;-144.99;100.00;52562.25;5109434;27;20474;-77
2023/12/29 01:21:26;;;;;;;;;;;;;;;-144.99;100.00;52580.59;5114315;27;19938;-76
2023/12/29 01:23:52;;;;;;;;;;;;;;;-144.99;100.00;52562.25;5129949;27;20022;-78
2023/12/29 01:26:19;;;;;;;;;;;;;;;-144.99;100.00;52598.94;5098648;27;20474;-77
2023/12/29 01:28:45;;;;;;;;;;;;;;;-144.99;100.00;52586.69;5112532;27;20470;-76
2023/12/29 01:31:13;;;;;;;;;;;;;;;-144.99;100.00;52649.88;5111025;28;20000;-77
2023/12/29 01:33:41;;;;;;;;;;;;;;;-144.99;100.00;52647.84;5113071;27;19988;-76
2023/12/29 01:36:07;;;;;;;;;;;;;;;-144.99;100.00;52570.38;5111938;27;19927;-75
2023/12/29 01:38:34;;;;;;;;;;;;;;;-144.99;100.00;52603.00;5118337;27;19974;-77
2023/12/29 01:41:00;;;;;;;;;;;;;;;-144.99;100.00;52576.50;5116659;27;20017;-76
2023/12/29 01:43:26;;;;;;;;;;;;;;;-144.99;100.00;52582.63;5109469;28;20477;-76
2023/12/29 01:45:53;;;;;;;;;;;;;;;-144.99;100.00;52578.53;5112340;27;20036;-76
2023/12/29 01:48:19;;;;;;;;;;;;;;;-144.99;100.00;52598.94;5112221;28;20008;-75
2023/12/29 01:50:47;;;;;;;;;;;;;;;-144.99;100.00;52578.53;5112199;28;20414;-76
2023/12/29 01:53:14;;;;;;;;;;;;;;;-144.99;100.00;52598.94;5111716;28;20483;-77
2023/12/29 01:55:40;;;;;;;;;;;;;;;-144.99;100.00;52570.38;5114082;27;19971;-76
2023/12/29 01:58:07;;;;;;;;;;;;;;;-144.99;100.00;52594.84;5111008;27;19935;-76
2023/12/29 02:00:34;;;;;;;;;;;;;;;-144.99;100.00;52560.19;5118536;27;20017;-77
2023/12/29 02:03:00;;;;;;;;;;;;;;;-144.99;100.00;52647.84;5111155;28;20170;-76
2023/12/29 02:05:27;;;;;;;;;;;;;;;-144.99;100.00;52603.00;5111961;27;19941;-76
2023/12/29 02:07:55;;;;;;;;;;;;;;;-144.99;100.00;52533.69;5094960;27;20755;-76
2023/12/29 02:10:22;;;;;;;;;;;;;;;-144.99;100.00;52603.00;5117105;27;19981;-74
2023/12/29 02:12:49;;;;;;;;;;;;;;;-144.99;100.00;52574.47;5109759;28;20007;-76
2023/12/29 02:15:16;;;;;;;;;;;;;;;-144.99;100.00;52586.69;5092987;28;19924;-76
2023/12/29 02:17:45;;;;;;;;;;;;;;;-144.99;100.00;52545.94;5112257;27;19934;-76
2023/12/29 02:20:12;;;;;;;;;;;;;;;-144.99;100.00;52605.03;5111535;28;20106;-77
2023/12/29 02:22:38;;;;;;;;;;;;;;;-144.99;100.00;52550.00;5110572;28;19969;-78
2023/12/29 02:25:07;;;;;;;;;;;;;;;-144.99;100.00;52592.81;5111755;27;19963;-78
2023/12/29 02:27:40;;;;;;;;;;;;;;;-144.99;100.00;52574.47;5123194;27;19927;-76
2023/12/29 02:30:10;;;;;;;;;;;;;;;-144.99;100.00;52590.78;5129072;28;20433;-77
2023/12/29 02:32:39;;;;;;;;;;;;;;;-144.99;100.00;52550.00;5110973;28;19924;-76
2023/12/29 02:35:07;;;;;;;;;;;;;;;-144.99;100.00;52594.84;5111279;28;19950;-78
2023/12/29 02:37:34;;;;;;;;;;;;;;;-144.99;100.00;52582.63;5110216;27;20023;-78
2023/12/29 02:40:01;;;;;;;;;;;;;;;-144.99;100.00;52545.94;5110668;28;20302;-77
2023/12/29 02:42:28;;;;;;;;;;;;;;;-144.99;100.00;52543.91;5109768;28;20035;-77
2023/12/29 02:44:55;;;;;;;;;;;;;;;-144.99;100.00;52592.81;5109591;28;20023;-77
2023/12/29 02:47:22;;;;;;;;;;;;;;;-144.99;100.00;52607.09;5111580;27;19924;-77
2023/12/29 02:49:49;;;;;;;;;;;;;;;-144.99;100.00;52603.00;5110632;28;19942;-78
2023/12/29 02:52:16;;;;;;;;;;;;;;;-144.99;100.00;52600.97;5109906;28;19999;-79
2023/12/29 02:54:42;;;;;;;;;;;;;;;-144.99;100.00;52578.53;5110758;27;20006;-78
2023/12/29 02:57:09;;;;;;;;;;;;;;;-144.99;100.00;52607.09;5119444;27;19980;-78
2023/12/29 02:59:37;;;;;;;;;;;;;;;-144.99;100.00;52594.84;5108352;27;20022;-79
2023/12/29 03:02:03;;;;;;;;;;;;;;;-144.99;100.00;52627.47;5132717;27;20471;-76
2023/12/29 03:04:30;;;;;;;;;;;;;;;-144.99;100.00;52570.38;5114166;27;19935;-75
2023/12/29 03:06:56;;;;;;;;;;;;;;;-144.99;100.00;52613.19;5111165;27;19967;-75
2023/12/29 03:09:23;;;;;;;;;;;;;;;-144.99;100.00;52564.28;5109488;28;19967;-75
2023/12/29 03:11:49;;;;;;;;;;;;;;;-144.99;100.00;52615.25;5108475;28;19966;-74
2023/12/29 03:14:15;;;;;;;;;;;;;;;-144.99;100.00;61100.13;5108956;27;20062;-75
2023/12/29 03:16:43;;;;;;;;;;;;;;;-144.99;nan;52578.53;5109104;28;19960;-75
2023/12/29 03:19:10;;;;;;;;;;;;;;;-144.99;nan;52566.31;5118468;27;19971;-76
2023/12/29 03:21:36;;;;;;;;;;;;;;;-144.99;nan;52592.81;5110212;28;19999;-78
2023/12/29 03:24:03;;;;;;;;;;;;;;;-144.99;nan;52613.19;5109703;28;20469;-78
2023/12/29 03:26:29;;;;;;;;;;;;;;;-144.99;nan;52576.50;5111445;27;20015;-78
2023/12/29 03:28:55;;;;;;;;;;;;;;;-144.99;nan;52590.78;5109310;28;19930;-78
2023/12/29 03:31:22;;;;;;;;;;;;;;;-144.99;nan;52580.59;5109962;28;20416;-78
2023/12/29 03:33:50;;;;;;;;;;;;;;;-144.99;nan;52598.94;5137011;27;20011;-80
2023/12/29 03:36:16;;;;;;;;;;;;;;;-144.99;nan;52570.38;5125746;27;19927;-80
2023/12/29 03:38:43;;;;;;;;;;;;;;;-144.99;nan;52521.47;5117021;27;19970;-79
2023/12/29 03:41:09;;;;;;;;;;;;;;;-144.99;nan;52590.78;5102837;28;19981;-79
2023/12/29 03:43:36;;;;;;;;;;;;;;;-144.99;nan;52619.31;5116848;27;20018;-79
2023/12/29 03:46:02;;;;;;;;;;;;;;;-144.99;nan;52570.38;5112499;28;19959;-79
2023/12/29 03:48:28;;;;;;;;;;;;;;;-144.99;nan;52572.44;5113962;27;20365;-76
2023/12/29 03:50:56;;;;;;;;;;;;;;;-144.99;nan;52590.78;5111646;27;19977;-78
2023/12/29 03:53:23;;;;;;;;;;;;;;;-144.99;nan;52574.47;5109174;27;20014;-77
2023/12/29 03:55:49;;;;;;;;;;;;;;;-144.99;nan;52545.94;5109839;28;19986;-80
2023/12/29 03:58:15;;;;;;;;;;;;;;;-144.99;nan;52574.47;5110280;28;20181;-76
2023/12/29 04:00:45;;;;;;;;;;;;;;;-144.99;nan;52558.16;5114263;27;20407;-75
2023/12/29 04:03:11;;;;;;;;;;;;;;;-144.99;nan;52568.34;5108598;27;20384;-76
2023/12/29 04:05:38;;;;;;;;;;;;;;;-144.99;nan;52545.94;5126639;27;19967;-79
2023/12/29 04:08:06;;;;;;;;;;;;;;;-144.99;nan;52598.94;5113065;27;20378;-79
2023/12/29 04:10:33;;;;;;;;;;;;;;;-144.99;nan;52566.31;5109757;28;20018;-76
2023/12/29 04:12:59;;;;;;;;;;;;;;;-144.99;nan;52574.47;5108899;27;20436;-76
2023/12/29 04:15:26;;;;;;;;;;;;;;;-144.99;nan;52564.28;5108164;28;20007;-76
2023/12/29 04:17:52;;;;;;;;;;;;;;;-144.99;nan;52580.59;5110467;27;19953;-76
2023/12/29 04:20:18;;;;;;;;;;;;;;;-144.99;nan;52584.66;5108546;28;20063;-77
2023/12/29 04:22:45;;;;;;;;;;;;;;;-144.99;nan;52607.09;5117456;27;20011;-77
2023/12/29 04:25:12;;;;;;;;;;;;;;;-144.99;nan;52639.69;5108289;27;20010;-76
2023/12/29 04:27:40;;;;;;;;;;;;;;;-144.99;nan;52570.38;5115479;27;20010;-75
2023/12/29 04:30:06;;;;;;;;;;;;;;;-144.99;nan;52586.69;5107699;28;20026;-75
2023/12/29 04:32:32;;;;;;;;;;;;;;;-144.99;nan;52598.94;5108305;28;20452;-77
2023/12/29 04:34:58;;;;;;;;;;;;;;;-144.99;nan;52594.84;5112323;27;19943;-77
2023/12/29 04:37:25;;;;;;;;;;;;;;;-144.99;nan;52603.00;5122885;27;19947;-78
2023/12/29 04:39:51;;;;;;;;;;;;;;;-144.99;nan;52617.28;5134487;27;19949;-77
2023/12/29 04:42:19;;;;;;;;;;;;;;;-144.99;nan;52594.84;5112726;28;19977;-76
2023/12/29 04:44:45;;;;;;;;;;;;;;;-144.99;nan;52586.69;5108576;28;20005;-76
2023/12/29 04:47:12;;;;;;;;;;;;;;;-144.99;nan;52586.69;5108412;28;20360;-77
2023/12/29 04:49:38;;;;;;;;;;;;;;;-144.99;nan;52647.84;5108487;28;19931;-74
2023/12/29 04:52:05;;;;;;;;;;;;;;;-144.99;nan;52598.94;5108009;28;20433;-77
2023/12/29 04:54:32;;;;;;;;;;;;;;;-144.99;nan;52621.34;5108978;28;20054;-77
2023/12/29 04:56:58;;;;;;;;;;;;;;;-144.99;nan;52609.13;5118867;28;20388;-76
2023/12/29 04:59:26;;;;;;;;;;;;;;;-144.99;nan;52619.31;5106957;28;20018;-76
2023/12/29 05:01:52;;;;;;;;;;;;;;;-144.99;nan;52578.53;5113799;28;20018;-76
2023/12/29 05:04:18;;;;;;;;;;;;;;;-144.99;nan;52592.81;5108435;28;20358;-77
2023/12/29 05:06:45;;;;;;;;;;;;;;;-144.99;nan;52582.63;5116108;27;20488;-78
2023/12/29 05:09:11;;;;;;;;;;;;;;;-144.99;nan;52603.00;5108945;28;20333;-78
2023/12/29 05:11:38;;;;;;;;;;;;;;;-144.99;nan;52611.16;5118938;28;19955;-80
2023/12/29 05:14:04;;;;;;;;;;;;;;;-144.99;nan;52566.31;5121521;27;20422;-78
2023/12/29 05:16:31;;;;;;;;;;;;;;;-144.99;nan;52570.38;5109684;28;19928;-74
2023/12/29 05:18:58;;;;;;;;;;;;;;;-144.99;nan;52590.78;5111914;28;20054;-75
2023/12/29 05:21:25;;;;;;;;;;;;;;;-144.99;nan;52545.94;5107520;28;20454;-75
2023/12/29 05:23:52;;;;;;;;;;;;;;;-144.99;nan;52594.84;5106731;28;19930;-75
2023/12/29 05:26:18;;;;;;;;;;;;;;;-144.99;nan;52562.25;5118235;27;19930;-75
2023/12/29 05:28:45;;;;;;;;;;;;;;;-144.99;nan;52598.94;5112923;27;19929;-75
2023/12/29 05:31:11;;;;;;;;;;;;;;;-144.99;nan;52582.63;5108081;28;20026;-75
2023/12/29 05:33:39;;;;;;;;;;;;;;;-144.99;nan;52574.47;5107184;28;20010;-75
2023/12/29 05:36:09;;;;;;;;;;;;;;;-144.99;nan;52613.19;5107667;28;20022;-76
2023/12/29 05:38:36;;;;;;;;;;;;;;;-144.99;nan;52582.63;5109205;27;19974;-76
2023/12/29 05:41:04;;;;;;;;;;;;;;;-144.99;nan;52580.59;5109123;28;19969;-76
2023/12/29 05:43:31;;;;;;;;;;;;;;;-144.99;nan;52598.94;5113592;28;19931;-75
2023/12/29 05:45:57;;;;;;;;;;;;;;;-144.99;nan;52627.47;5125085;28;20303;-74
2023/12/29 05:48:24;;;;;;;;;;;;;;;-144.99;nan;52570.38;5112270;27;19973;-75
2023/12/29 05:50:52;;;;;;;;;;;;;;;-144.99;nan;52603.00;5114707;27;19928;-76
2023/12/29 05:53:19;;;;;;;;;;;;;;;-144.99;nan;52607.09;5112224;27;19924;-76
2023/12/29 05:55:45;;;;;;;;;;;;;;;-144.99;nan;52594.84;5113664;28;19927;-76
2023/12/29 05:58:12;;;;;;;;;;;;;;;-144.99;nan;52598.94;5114211;27;19932;-79
2023/12/29 06:00:39;;;;;;;;;;;;;;;-144.99;nan;52590.78;5120441;27;20003;-73
2023/12/29 06:03:06;;;;;;;;;;;;;;;-144.99;nan;52586.69;5111904;28;19949;-75
2023/12/29 06:05:33;;;;;;;;;;;;;;;-144.99;nan;52619.31;5113033;27;20291;-77
2023/12/29 06:08:00;;;;;;;;;;;;;;;-144.99;nan;52543.91;5113791;27;19928;-75
2023/12/29 06:10:27;;;;;;;;;;;;;;;-144.99;nan;52586.69;5123671;27;19978;-76
2023/12/29 06:12:53;;;;;;;;;;;;;;;-144.99;nan;52603.00;5111485;27;19924;-75
2023/12/29 06:15:20;;;;;;;;;;;;;;;-144.99;nan;52580.59;5111475;28;19935;-75
2023/12/29 06:17:46;;;;;;;;;;;;;;;-144.99;nan;52603.00;5113583;27;19924;-77
2023/12/29 06:20:13;;;;;;;;;;;;;;;-144.99;nan;52574.47;5112485;28;20302;-76
2023/12/29 06:22:40;;;;;;;;;;;;;;;-144.99;nan;52552.03;5123314;27;19927;-75
2023/12/29 06:25:09;;;;;;;;;;;;;;;-144.99;nan;52598.94;5111637;28;19924;-75
2023/12/29 06:27:37;;;;;;;;;;;;;;;-144.99;nan;52566.31;5112330;27;19996;-75
2023/12/29 06:30:03;;;;;;;;;;;;;;;-144.99;nan;52598.94;5110159;28;19928;-76
2023/12/29 06:32:31;;;;;;;;;;;;;;;-144.99;nan;52619.31;5100914;27;19923;-77
2023/12/29 06:34:57;;;;;;;;;;;;;;;-144.99;nan;52615.25;4408022;27;10000681;-77
2023/12/29 06:37:23;;;;;;;;;;;;;;;-144.99;nan;52584.66;5108839;27;19971;-75
2023/12/29 06:39:50;;;;;;;;;;;;;;;-144.99;nan;52590.78;5113820;27;19923;-77
2023/12/29 06:42:18;;;;;;;;;;;;;;;-144.99;nan;52582.63;5115536;27;20147;-79
2023/12/29 06:44:44;;;;;;;;;;;;;;;-144.99;nan;52578.53;5109088;27;20119;-76
2023/12/29 06:47:12;;;;;;;;;;;;;;;-144.99;nan;52578.53;5120504;27;19992;-76
2023/12/29 06:49:40;;;;;;;;;;;;;;;-144.99;nan;52564.28;5123531;27;19949;-76
2023/12/29 06:52:07;;;;;;;;;;;;;;;-144.99;nan;52578.53;5108272;28;19968;-77
2023/12/29 06:54:34;;;;;;;;;;;;;;;-144.99;nan;52615.25;5113694;27;19996;-74
2023/12/29 06:57:00;;;;;;;;;;;;;;;-144.99;nan;52633.59;5118233;27;20336;-75
2023/12/29 06:59:28;;;;;;;;;;;;;;;-144.99;nan;52586.69;5106940;28;20182;-76
2023/12/29 07:01:55;;;;;;;;;;;;;;;-144.99;nan;52609.13;5113014;27;20401;-77
2023/12/29 07:04:21;;;;;;;;;;;;;;;-144.99;nan;52566.31;5110528;27;19927;-75
2023/12/29 07:06:48;;;;;;;;;;;;;;;-144.99;nan;52590.78;5115793;27;19932;-75
2023/12/29 07:09:14;;;;;;;;;;;;;;;-144.99;nan;52550.00;5122280;27;19977;-74
2023/12/29 07:11:41;;;;;;;;;;;;;;;-144.99;nan;52582.63;5111353;27;19927;-75
2023/12/29 07:14:07;;;;;;;;;;;;;;;-144.99;nan;52594.84;5108495;27;20407;-74
2023/12/29 07:16:35;;;;;;;;;;;;;;;-144.99;nan;52582.63;5115719;27;20052;-74
2023/12/29 07:19:02;;;;;;;;;;;;;;;-144.99;nan;52611.16;5107017;28;19943;-74
2023/12/29 07:21:29;;;;;;;;;;;;;;;-144.99;nan;52566.31;5115949;28;19928;-74
2023/12/29 07:23:55;;;;;;;;;;;;;;;-144.99;nan;52576.50;5114317;28;19924;-76
2023/12/29 07:26:22;;;;;;;;;;;;;;;-144.99;nan;52558.16;5110737;27;19988;-74
2023/12/29 07:28:53;;;;;;;;;;;;;;;-144.99;nan;52558.16;5109096;27;19957;-75
2023/12/29 07:31:20;;;;;;;;;;;;;;;-144.99;nan;52554.09;5106982;28;20027;-76
2023/12/29 07:33:48;;;;;;;;;;;;;;;-144.99;nan;52578.53;5106406;28;20301;-75
2023/12/29 07:36:14;;;;;;;;;;;;;;;-144.99;nan;52594.84;5106397;28;19931;-74
2023/12/29 07:38:42;;;;;;;;;;;;;;;-144.99;nan;52570.38;5110181;27;20407;-75
2023/12/29 07:41:08;;;;;;;;;;;;;;;-144.99;nan;52582.63;5107386;27;20305;-74
2023/12/29 07:43:35;;;;;;;;;;;;;;;-144.99;nan;52578.53;5110750;27;20593;-75
2023/12/29 07:46:02;;;;;;;;;;;;;;;-144.99;nan;52592.81;5106132;28;20217;-75
2023/12/29 07:48:28;;;;;;;;;;;;;;;-144.99;nan;52582.63;5107356;27;19927;-75
2023/12/29 07:50:59;;;;;;;;;;;;;;;-144.99;nan;52547.97;5107293;27;19985;-76
2023/12/29 07:53:25;;;;;;;;;;;;;;;-144.99;nan;52590.78;5109667;28;19935;-76
2023/12/29 07:55:53;;;;;;;;;;;;;;;-144.99;nan;52558.16;5118193;28;19931;-76
2023/12/29 07:58:19;;;;;;;;;;;;;;;-144.99;nan;52582.63;5108281;27;19993;-75
2023/12/29 08:00:46;;;;;;;;;;;;;;;-144.99;nan;52554.09;5116127;27;19991;-76
2023/12/29 08:03:13;;;;;;;;;;;;;;;-144.99;nan;52617.28;5107140;28;19936;-75
2023/12/29 08:05:39;;;;;;;;;;;;;;;-144.99;nan;52547.97;5109146;27;19974;-74
2023/12/29 08:08:07;;;;;;;;;;;;;;;-144.99;nan;52635.63;5120062;27;20417;-78
2023/12/29 08:10:34;;;;;;;;;;;;;;;-144.99;nan;52566.31;5112759;27;20022;-78
2023/12/29 08:13:00;;;;;;;;;;;;;;;-144.99;nan;52574.47;5109300;27;20054;-77
2023/12/29 08:15:27;;;;;;;;;;;;;;;-144.99;nan;52545.94;5120488;27;19965;-74
2023/12/29 08:17:53;;;;;;;;;;;;;;;-144.99;nan;52558.16;5115791;27;19932;-73
2023/12/29 08:20:21;;;;;;;;;;;;;;;-144.99;nan;52580.59;5111546;27;20112;-75
2023/12/29 08:22:47;;;;;;;;;;;;;;;-144.99;nan;52596.88;5112671;27;19934;-73
2023/12/29 08:25:15;;;;;;;;;;;;;;;-144.99;nan;52603.00;5114297;27;19951;-74
2023/12/29 08:27:42;;;;;;;;;;;;;;;-144.99;nan;52556.13;5116968;27;19927;-74
2023/12/29 08:30:09;;;;;;;;;;;;;;;-144.99;nan;52574.47;5104478;28;19939;-74
2023/12/29 08:32:35;;;;;;;;;;;;;;;-144.99;nan;52594.84;5111193;27;20382;-75
2023/12/29 08:35:01;;;;;;;;;;;;;;;-144.99;nan;52586.69;5114853;27;20015;-74
2023/12/29 08:37:28;;;;;;;;;;;;;;;-144.99;nan;52566.31;5105747;28;19928;-76
2023/12/29 08:39:56;;;;;;;;;;;;;;;-144.99;nan;52586.69;5111975;28;20284;-76
2023/12/29 08:42:23;;;;;;;;;;;;;;;-144.99;nan;52539.81;5109626;28;20039;-71
2023/12/29 08:44:50;;;;;;;;;;;;;;;-144.99;nan;52582.63;5108680;27;19959;-75
2023/12/29 08:47:16;;;;;;;;;;;;;;;-144.99;nan;52566.31;5118644;28;20296;-74
2023/12/29 08:49:43;;;;;;;;;;;;;;;-144.99;nan;52582.63;5113582;28;20527;-76
2023/12/29 08:52:09;;;;;;;;;;;;;;;-144.99;nan;52558.16;5106761;27;20341;-75
2023/12/29 08:54:36;;;;;;;;;;;;;;;-144.99;nan;52586.69;5105944;28;20306;-74
2023/12/29 08:57:03;;;;;;;;;;;;;;;-144.99;nan;52607.09;5105021;28;19942;-76
2023/12/29 08:59:30;;;;;;;;;;;;;;;-144.99;nan;52615.25;5113602;28;19963;-75
2023/12/29 09:01:57;;;;;;;;;;;;;;;-144.99;nan;52631.53;5121400;28;20005;-75
2023/12/29 09:04:23;;;;;;;;;;;;;;;-144.99;nan;52627.47;5111792;27;20006;-74
2023/12/29 09:06:50;;;;;;;;;;;;;;;-144.99;nan;52615.25;5110134;27;20018;-74
2023/12/29 09:09:16;;;;;;;;;;;;;;;-144.99;nan;52603.00;5103761;28;20141;-74
2023/12/29 09:11:43;;;;;;;;;;;;;;;-144.99;nan;52568.34;5103441;28;20370;-75
2023/12/29 09:14:09;;;;;;;;;;;;;;;-144.99;nan;52578.53;5108925;27;20295;-74
2023/12/29 09:16:37;;;;;;;;;;;;;;;-144.99;nan;52590.78;5117349;27;20030;-74
2023/12/29 09:19:04;;;;;;;;;;;;;;;-144.99;nan;52598.94;5110596;28;19934;-74
2023/12/29 09:21:30;;;;;;;;;;;;;;;-144.99;nan;52600.97;5109644;28;19951;-75
2023/12/29 09:23:56;;;;;;;;;;;;;;;-144.99;nan;52615.25;5109545;27;20002;-75
2023/12/29 09:26:23;;;;;;;;;;;;;;;-144.99;nan;52582.63;5117000;27;20046;-74
2023/12/29 09:28:49;;;;;;;;;;;;;;;-144.99;nan;52615.25;5108748;27;20393;-74
2023/12/29 09:31:16;;;;;;;;;;;;;;;-144.99;nan;52615.25;5108211;28;20060;-76
2023/12/29 09:33:44;;;;;;;;;;;;;;;-144.99;nan;52627.47;5122144;28;20017;-76
2023/12/29 09:36:10;;;;;;;;;;;;;;;-144.99;nan;52586.69;5113487;27;20003;-77
2023/12/29 09:38:37;;;;;;;;;;;;;;;-144.99;nan;52639.69;5107837;28;20014;-76
2023/12/29 09:41:05;;;;;;;;;;;;;;;-144.99;nan;52598.94;5107925;28;20353;-76
2023/12/29 09:43:32;;;;;;;;;;;;;;;-144.99;nan;52609.13;5110376;27;20202;-74
2023/12/29 09:45:59;;;;;;;;;;;;;;;-144.99;nan;52594.84;5107185;28;20035;-74
2023/12/29 09:48:27;;;;;;;;;;;;;;;-144.99;nan;52619.31;5112111;27;20413;-75
2023/12/29 09:50:56;;;;;;;;;;;;;;;-144.99;nan;52582.63;5113735;27;20014;-76
2023/12/29 09:53:22;;;;;;;;;;;;;;;-144.99;nan;52611.16;5106946;28;20349;-76
2023/12/29 09:55:49;;;;;;;;;;;;;;;-144.99;nan;52570.38;5115756;27;19962;-75
2023/12/29 09:58:16;;;;;;;;;;;;;;;-144.99;nan;52529.63;5106090;28;20510;-76
2023/12/29 10:00:43;;;;;;;;;;;;;;;-144.99;nan;52529.63;5114181;27;20407;-75
2023/12/29 10:03:09;;;;;;;;;;;;;;;-144.99;nan;52560.19;5107984;28;19938;-76
2023/12/29 10:05:36;;;;;;;;;;;;;;;-144.99;nan;52501.09;5117608;27;19928;-78
2023/12/29 10:08:06;;;;;;;;;;;;;;;-144.99;nan;52521.47;5115644;28;20171;-76
2023/12/29 10:10:33;;;;;;;;;;;;;;;-144.99;nan;52525.56;5107006;28;20031;-76
2023/12/29 10:13:00;;;;;;;;;;;;;;;-144.99;nan;52517.41;5087956;28;20192;-75
2023/12/29 10:15:34;;;;;;;;;;;;;;;-144.99;nan;52497.00;5118018;27;20398;-75
2023/12/29 10:18:07;;;;;;;;;;;;;;;-144.99;nan;52541.84;5121180;27;20273;-76
2023/12/29 10:20:39;;;;;;;;;;;;;;;-144.99;nan;52480.72;5107327;28;19985;-76
2023/12/29 10:23:09;;;;;;;;;;;;;;;-144.99;nan;52521.47;5113605;27;19928;-75
2023/12/29 10:25:36;;;;;;;;;;;;;;;-144.99;nan;52517.41;5107688;28;19927;-77
2023/12/29 10:28:02;;;;;;;;;;;;;;;-144.99;nan;52505.16;5113448;27;19931;-77
2023/12/29 10:30:29;;;;;;;;;;;;;;;-144.99;nan;52513.31;5106456;28;20420;-77
2023/12/29 10:32:56;;;;;;;;;;;;;;;-144.99;nan;52476.63;5111360;27;20355;-76
2023/12/29 10:35:22;;;;;;;;;;;;;;;-144.99;nan;52488.84;5111777;27;19931;-77
2023/12/29 10:37:49;;;;;;;;;;;;;;;-144.99;nan;52450.13;5108815;27;20018;-75
2023/12/29 10:40:19;;;;;;;;;;;;;;;-144.99;nan;52513.31;4757674;27;10000516;-78
2023/12/29 10:42:52;;;;;;;;;;;;;;;-144.99;nan;52497.00;5107491;27;19985;-76
2023/12/29 10:45:19;;;;;;;;;;;;;;;-144.99;nan;52527.59;4752793;27;10000368;-76
2023/12/29 10:47:45;;;;;;;;;;;;;;;-144.99;nan;52484.78;5116014;27;20006;-75
2023/12/29 10:50:12;;;;;;;;;;;;;;;-144.99;nan;52578.53;5114528;27;20010;-77
2023/12/29 10:52:40;;;;;;;;;;;;;;;-144.99;nan;52550.00;5108794;28;19974;-78
2023/12/29 10:55:07;;;;;;;;;;;;;;;-144.99;nan;52582.63;5108669;28;19928;-76
2023/12/29 10:57:35;;;;;;;;;;;;;;;-144.99;nan;52609.13;5113336;27;20023;-76
2023/12/29 11:00:03;;;;;;;;;;;;;;;-144.99;nan;52594.84;5111007;27;19927;-75
2023/12/29 11:02:29;;;;;;;;;;;;;;;-144.99;nan;52556.13;5115114;27;20050;-76
2023/12/29 11:05:02;;;;;;;;;;;;;;;-144.99;nan;52533.69;5117857;27;19923;-76
2023/12/29 11:07:32;;;;;;;;;;;;;;;-144.99;nan;52594.84;5108726;28;20181;-75
2023/12/29 11:10:01;;;;;;;;;;;;;;;-144.99;nan;52578.53;5116713;27;19984;-76
2023/12/29 11:12:27;;;;;;;;;;;;;;;-144.99;nan;52625.44;5126139;27;19991;-76
2023/12/29 11:14:55;;;;;;;;;;;;;;;-144.99;nan;52598.94;5116506;27;20002;-77
2023/12/29 11:17:22;;;;;;;;;;;;;;;-144.99;nan;52586.69;5117851;27;19924;-76
2023/12/29 11:19:48;;;;;;;;;;;;;;;-144.99;nan;52590.78;5108515;27;20014;-77
2023/12/29 11:22:15;;;;;;;;;;;;;;;-144.99;nan;52554.09;5087414;28;19934;-78
2023/12/29 11:24:42;;;;;;;;;;;;;;;-144.99;nan;52611.16;5107061;28;20006;-75
2023/12/29 11:27:08;;;;;;;;;;;;;;;-144.99;nan;52570.38;5116008;27;19996;-77
2023/12/29 11:29:35;;;;;;;;;;;;;;;-144.99;nan;52600.97;5105464;28;19927;-76
2023/12/29 11:32:05;;;;;;;;;;;;;;;-144.99;nan;52607.09;5105633;28;20074;-76
2023/12/29 11:34:34;;;;;;;;;;;;;;;-144.99;nan;52586.69;5107544;27;19935;-76
2023/12/29 11:37:06;;;;;;;;;;;;;;;-144.99;nan;52566.31;5110403;27;20414;-77
2023/12/29 11:39:39;;;;;;;;;;;;;;;-144.99;nan;52615.25;5116745;27;19927;-77
2023/12/29 11:42:10;;;;;;;;;;;;;;;-144.99;nan;52570.38;5115380;27;20292;-77
2023/12/29 11:44:36;;;;;;;;;;;;;;;-144.99;nan;52537.78;5119229;27;19927;-77
2023/12/29 11:47:04;;;;;;;;;;;;;;;-144.99;nan;52574.47;5133540;27;19928;-78
2023/12/29 11:49:59;;;;;;;;;;;;;;;-144.99;nan;52554.09;5118432;27;19931;-77
2023/12/29 11:52:33;;;;;;;;;;;;;;;-144.99;nan;52578.53;5106698;28;20388;-76
2023/12/29 11:55:07;;;;;;;;;;;;;;;-144.99;nan;52613.19;5112196;27;20023;-76
2023/12/29 11:57:36;;;;;;;;;;;;;;;-144.99;nan;52578.53;5110796;27;20467;-76
2023/12/29 12:00:02;;;;;;;;;;;;;;;-144.99;nan;52570.38;5107732;27;20609;-76
2023/12/29 12:02:30;;;;;;;;;;;;;;;-144.99;nan;52533.69;5110679;27;20026;-75
2023/12/29 12:04:57;;;;;;;;;;;;;;;-144.99;nan;52545.94;5109835;27;19978;-76
2023/12/29 12:07:38;;;;;;;;;;;;;;;-144.99;nan;52513.31;5111864;27;20373;-77
2023/12/29 12:10:19;;;;;;;;;;;;;;;-144.99;nan;52382.88;5112768;27;20014;-76
2023/12/29 12:12:46;;;;;;;;;;;;;;;-144.99;nan;52464.41;5106136;27;19963;-78
2023/12/29 12:15:28;;;;;;;;;;;;;;;-144.99;nan;52484.78;5112258;27;19928;-77
2023/12/29 12:17:56;;;;;;;;;;;;;;;-144.99;nan;52533.69;5120097;27;19928;-78
2023/12/29 12:20:23;;;;;;;;;;;;;;;-144.99;nan;52427.72;5123792;27;19938;-76
2023/12/29 12:22:50;;;;;;;;;;;;;;;-144.99;nan;52541.84;5129678;27;20027;-77
2023/12/29 12:25:17;;;;;;;;;;;;;;;-144.99;nan;52446.06;5107922;27;20022;-77
2023/12/29 12:27:44;;;;;;;;;;;;;;;-144.99;nan;52417.53;5108292;27;20765;-76
2023/12/29 12:30:10;;;;;;;;;;;;;;;-144.99;nan;52370.63;5103452;28;20026;-77
2023/12/29 12:32:37;;;;;;;;;;;;;;;-144.99;nan;52354.34;5119310;27;20321;-76
2023/12/29 12:35:14;;;;;;;;;;;;;;;-144.99;nan;52338.03;5106858;28;20014;-77
2023/12/29 12:37:40;;;;;;;;;;;;;;;-144.99;nan;52333.94;5106412;28;20098;-74